Hestrud (Nord, France) - 208 m
Donnes mto: Actuelle jeudi, 27/06/2019 01:52
Date Horaire Temp Out Temp. 4 Temp. E. min Temp. E. max Temp. Sol 1 Hum Out Hum. Sol 1 Press Rain Wind Dir Dir Solar Ev.Tr. UV Hi Solar Rad Dew Point Windchill Wind (Gust)
27/06/2019 01:52 19,0 C 18,3 C 19,0 C 19,1 C 19,4 C 84 % 200 cb 1024,3 hPa 0,0 mm 12,9 km/h (3 Bft) E-NE 67 0 min 0,025 mm 0,0 UV-I 0 W/m 16,2 C 16,6 C 16,1 km/h (3 Bft)
27/06/2019 00:52 19,9 C 19,4 C 19,9 C 19,9 C 20,0 C 86 % 200 cb 1024,4 hPa 0,0 mm 12,9 km/h (3 Bft) NE 45 0 min 0,025 mm 0,0 UV-I 0 W/m 17,5 C 17,7 C 19,3 km/h (3 Bft)
26/06/2019 23:52 21,0 C 20,0 C 21,0 C 21,0 C 21,1 C 84 % 200 cb 1024,3 hPa 0,0 mm 8,0 km/h (2 Bft) NE 45 0 min 0,025 mm 0,0 UV-I 0 W/m 18,2 C 20,4 C 11,3 km/h (2 Bft)
26/06/2019 22:52 22,1 C 21,1 C 22,1 C 22,1 C 22,2 C 82 % 200 cb 1023,8 hPa 0,0 mm 16,1 km/h (3 Bft) E-NE 67 0 min 0,051 mm 0,0 UV-I 0 W/m 18,9 C 19,6 C 22,5 km/h (4 Bft)
26/06/2019 21:52 23,6 C 22,2 C 23,6 C 23,6 C 23,3 C 79 % 200 cb 1023,2 hPa 0,0 mm 11,3 km/h (2 Bft) NE 45 0 min 0,102 mm 0,0 UV-I 5 W/m 19,7 C 22,3 C 14,5 km/h (3 Bft)
26/06/2019 20:52 24,8 C 24,4 C 24,8 C 24,8 C 25,0 C 77 % 200 cb 1022,7 hPa 0,0 mm 11,3 km/h (2 Bft) NE 45 5 min 0,203 mm 0,0 UV-I 40 W/m 20,5 C 23,7 C 16,1 km/h (3 Bft)
26/06/2019 19:52 25,7 C 26,7 C 25,7 C 25,7 C 25,6 C 73 % 200 cb 1022,4 hPa 0,0 mm 12,9 km/h (3 Bft) NE 45 60 min 0,279 mm 0,0 UV-I 160 W/m 20,5 C 24,5 C 14,5 km/h (3 Bft)
26/06/2019 18:52 26,3 C 30,0 C 26,3 C 26,3 C 26,7 C 69 % 200 cb 1022,3 hPa 0,0 mm 14,5 km/h (3 Bft) NE 45 60 min 0,381 mm 0,9 UV-I 308 W/m 20,1 C 24,9 C 19,3 km/h (3 Bft)
26/06/2019 17:52 26,8 C 36,1 C 26,8 C 26,9 C 27,8 C 70 % 200 cb 1022,5 hPa 0,0 mm 16,1 km/h (3 Bft) NE 45 60 min 0,457 mm 2,0 UV-I 436 W/m 20,9 C 25,4 C 20,9 km/h (4 Bft)
26/06/2019 16:52 26,9 C 39,4 C 26,9 C 26,9 C 28,3 C 72 % 200 cb 1022,6 hPa 0,0 mm 12,9 km/h (3 Bft) NE 45 60 min 0,508 mm 3,3 UV-I 578 W/m 21,4 C 25,9 C 17,7 km/h (3 Bft)
26/06/2019 15:52 27,4 C 34,4 C 27,3 C 27,4 C 28,9 C 70 % 200 cb 1022,8 hPa 0,0 mm 14,5 km/h (3 Bft) NE 45 60 min 0,533 mm 4,5 UV-I 686 W/m 21,4 C 26,3 C 17,7 km/h (3 Bft)
26/06/2019 14:52 27,1 C 32,8 C 27,1 C 27,2 C 28,3 C 73 % 200 cb 1023,4 hPa 0,0 mm 9,7 km/h (2 Bft) N-NE 22 60 min 0,533 mm 5,5 UV-I 756 W/m 21,8 C 26,5 C 14,5 km/h (3 Bft)
26/06/2019 13:52 26,5 C 31,7 C 26,5 C 26,5 C 27,8 C 75 % 200 cb 1023,8 hPa 0,0 mm 9,7 km/h (2 Bft) N-NE 22 60 min 0,483 mm 5,9 UV-I 789 W/m 21,7 C 25,9 C 12,9 km/h (3 Bft)
26/06/2019 12:52 24,6 C 32,2 C 24,6 C 24,6 C 26,1 C 79 % 200 cb 1023,5 hPa 0,0 mm 8,0 km/h (2 Bft) NE 45 60 min 0,381 mm 5,5 UV-I 769 W/m 20,7 C 24,2 C 11,3 km/h (2 Bft)
26/06/2019 11:52 23,4 C 30,0 C 23,4 C 23,4 C 25,0 C 83 % 200 cb 1023,6 hPa 0,0 mm 9,7 km/h (2 Bft) NE 45 60 min 0,305 mm 4,9 UV-I 693 W/m 20,3 C 22,5 C 11,3 km/h (2 Bft)
26/06/2019 10:52 21,2 C 27,2 C 21,2 C 21,2 C 22,8 C 88 % 200 cb 1023,6 hPa 0,0 mm 4,8 km/h (1 Bft) NE 45 60 min 0,203 mm 3,8 UV-I 642 W/m 19,1 C 21,2 C 8,0 km/h (2 Bft)
26/06/2019 09:52 19,3 C 26,1 C 19,3 C 19,3 C 21,1 C 91 % 200 cb 1023,4 hPa 0,0 mm 9,7 km/h (2 Bft) N-NE 22 60 min 0,178 mm 1,8 UV-I 276 W/m 17,8 C 18,0 C 14,5 km/h (3 Bft)
26/06/2019 08:52 19,2 C 25,0 C 19,2 C 19,2 C 20,6 C 93 % 200 cb 1022,9 hPa 0,0 mm 8,0 km/h (2 Bft) NE 45 59 min 0,076 mm 1,3 UV-I 414 W/m 18,0 C 18,5 C 11,3 km/h (2 Bft)
26/06/2019 07:52 18,2 C 23,3 C 18,2 C 18,2 C 18,9 C 95 % 200 cb 1022,1 hPa 0,0 mm 6,4 km/h (2 Bft) E-NE 67 17 min 0,025 mm 0,6 UV-I 185 W/m 17,4 C 18,2 C 9,7 km/h (2 Bft)
26/06/2019 06:52 17,4 C 20,6 C 17,4 C 17,4 C 18,3 C 96 % 200 cb 1022,0 hPa 0,0 mm 3,2 km/h (1 Bft) E-NE 67 0 min 0,000 mm 0,0 UV-I 69 W/m 16,8 C 17,4 C 6,4 km/h (2 Bft)
26/06/2019 05:52 17,5 C 17,2 C 17,5 C 17,5 C 18,3 C 96 % 200 cb 1021,9 hPa 0,0 mm 0,0 km/h (0 Bft) N 0 0 min 0,000 mm 0,0 UV-I 12 W/m 16,9 C 17,5 C 0,0 km/h (0 Bft)
26/06/2019 04:52 17,9 C 17,2 C 17,9 C 17,9 C 18,3 C 95 % 200 cb 1021,1 hPa 0,0 mm 0,0 km/h (0 Bft) N 0 0 min 0,000 mm 0,0 UV-I 0 W/m 17,1 C 17,9 C 0,0 km/h (0 Bft)
26/06/2019 03:52 18,4 C 17,8 C 18,4 C 18,4 C 18,9 C 93 % 200 cb 1020,8 hPa 0,0 mm 0,0 km/h (0 Bft) N 0 0 min 0,000 mm 0,0 UV-I 0 W/m 17,2 C 18,4 C 0,0 km/h (0 Bft)
26/06/2019 02:52 19,2 C 18,9 C 19,2 C 19,2 C 19,4 C 90 % 200 cb 1020,6 hPa 0,0 mm 0,0 km/h (0 Bft) N 0 0 min 0,025 mm 0,0 UV-I 0 W/m 17,5 C 19,2 C 0,0 km/h (0 Bft)
26/06/2019 02:00 20,3 C 18,9 C 20,3 C 20,3 C 20,0 C 87 % 200 cb 1020,4 hPa 0,0 mm 0,0 km/h (0 Bft) N 0 0 min 0,025 mm 0,0 UV-I 0 W/m 18,1 C 20,3 C 0,0 km/h (0 Bft)
_ Min-Heure 06:20 04:52 06:20 06:27 04:11 17:24 02:00 02:00 - 02:00 - - - - - - 01:52 01:42 02:00
Minimum _ 17,3 C 17,2 C 17,3 C 17,3 C 18,3 C 65 % 200 cb 1020,4 hPa - 0,0 km/h (0 Bft) - - - - - - 16,2 C 15,6 C 0,0 km/h (0 Bft)
_ Max-Heure 15:57 16:54 15:56 15:57 14:45 07:07 02:00 00:27 02:00 17:29 - - 07:36 14:00 13:34 13:58 14:45 14:44 01:12
Maximum _ 27,6 C 40,0 C 27,5 C 27,6 C 28,9 C 97 % 200 cb 1024,5 hPa 0,0 mm 19,3 km/h
NE (3 Bft)
- - 1 min 0,533 mm 6,0 UV-I 805 W/m 22,8 C 27,1 C 33,8 km/h
E-NE (5 Bft)
Moyenne _ 22,1 C 25,0 C 22,1 C 22,1 C 22,8 C 83 % 200 cb 1022,6 hPa #0,0 mm 8,2 km/h (2 Bft) NE - #0 min. #0,050 mm 0,0 UV-I 0 W/m 19,0 C 21,3 C 11,2 km/h (2 Bft)